Time;durP1;ratioP1;P1;durP2;ratioP2;P2;SDS_P1;SDS_P2;PMS_P1;PMS_P2;Temp;Humidity;BMP_temperature;BMP_pressure;BME280_temperature;BME280_humidity;BME280_pressure;Samples;Min_cycle;Max_cycle;Signal;HPM_P1;HPM_P2
2021/06/21 00:01:27;;;;;;;15.18;2.88;;;14.40;99.90;;;;;;4992361;28;20529;-82
2021/06/21 00:03:52;;;;;;;5.68;2.67;;;14.40;99.90;;;;;;4992479;28;20026;-81
2021/06/21 00:06:18;;;;;;;5.88;2.30;;;14.40;99.90;;;;;;4992299;28;20022;-82
2021/06/21 00:08:43;;;;;;;5.63;2.38;;;14.60;99.90;;;;;;5004523;28;20042;-82
2021/06/21 00:11:09;;;;;;;5.22;2.47;;;14.50;99.90;;;;;;5013012;28;20109;-82
2021/06/21 00:13:35;;;;;;;5.70;2.30;;;14.50;99.90;;;;;;5012913;28;20498;-82
2021/06/21 00:16:01;;;;;;;8.52;2.45;;;14.40;99.90;;;;;;5012991;28;20034;-81
2021/06/21 00:18:26;;;;;;;5.85;2.53;;;14.50;99.90;;;;;;5008667;28;20038;-82
2021/06/21 00:20:53;;;;;;;8.63;2.80;;;14.40;99.90;;;;;;4992143;28;20156;-81
2021/06/21 00:23:19;;;;;;;6.53;2.40;;;14.50;99.90;;;;;;4991739;28;20129;-82
2021/06/21 00:25:47;;;;;;;6.75;2.70;;;14.40;99.90;;;;;;4991894;28;20023;-82
2021/06/21 00:28:13;;;;;;;9.60;3.00;;;14.40;99.90;;;;;;4993265;28;20080;-81
2021/06/21 00:30:39;;;;;;;6.93;2.95;;;14.40;99.90;;;;;;5010355;28;20485;-82
2021/06/21 00:33:05;;;;;;;12.50;2.67;;;14.50;99.90;;;;;;5012682;28;20036;-82
2021/06/21 00:35:31;;;;;;;8.38;2.80;;;14.50;99.90;;;;;;5012652;28;20030;-82
2021/06/21 00:37:57;;;;;;;12.38;3.10;;;14.40;99.90;;;;;;5011476;28;20661;-82
2021/06/21 00:40:24;;;;;;;15.18;2.95;;;14.40;99.90;;;;;;4999411;28;20019;-82
2021/06/21 00:42:49;;;;;;;16.98;3.88;;;14.30;99.90;;;;;;4992724;28;20023;-82
2021/06/21 00:45:17;;;;;;;9.88;2.58;;;14.30;99.90;;;;;;4991716;28;20025;-81
2021/06/21 00:47:43;;;;;;;12.05;2.90;;;14.30;99.90;;;;;;4991579;28;20026;-82
2021/06/21 00:50:09;;;;;;;10.65;2.70;;;14.30;99.90;;;;;;5000774;28;20126;-82
2021/06/21 00:52:36;;;;;;;9.75;2.55;;;14.20;99.90;;;;;;5011626;28;20038;-82
2021/06/21 00:55:02;;;;;;;9.55;3.38;;;14.20;99.90;;;;;;5012483;28;20026;-82
2021/06/21 00:57:30;;;;;;;7.57;2.55;;;14.20;99.90;;;;;;5012301;28;20461;-82
2021/06/21 01:00:02;;;;;;;11.80;2.15;;;14.20;99.90;;;;;;5008516;28;20371;-81
2021/06/21 01:02:28;;;;;;;8.68;2.22;;;14.20;99.90;;;;;;4999166;28;20026;-81
2021/06/21 01:04:55;;;;;;;6.05;2.38;;;14.20;99.90;;;;;;5010938;28;20033;-82
2021/06/21 01:07:21;;;;;;;4.85;2.50;;;14.30;99.90;;;;;;5012219;28;20029;-82
2021/06/21 01:09:49;;;;;;;8.13;2.63;;;14.10;99.90;;;;;;5010971;28;20017;-82
2021/06/21 01:12:40;;;;;;;8.63;2.75;;;14.30;99.90;;;;;;5024911;28;20028;-82
2021/06/21 01:15:11;;;;;;;7.38;2.40;;;14.10;99.90;;;;;;4992547;28;20029;-82
2021/06/21 01:17:57;;;;;;;6.75;2.28;;;14.10;99.90;;;;;;4991279;28;20070;-82
2021/06/21 01:20:50;;;;;;;11.13;2.85;;;14.00;99.90;;;;;;4992590;28;20391;-82
2021/06/21 01:23:43;;;;;;;12.38;2.88;;;14.00;99.90;;;;;;4992257;28;20448;-82
2021/06/21 01:26:34;;;;;;;11.63;2.80;;;14.00;99.90;;;;;;4991135;28;20030;-81
2021/06/21 01:29:31;;;;;;;4.55;2.15;;;14.00;99.90;;;;;;4991277;28;20022;-83
2021/06/21 01:32:13;;;;;;;10.60;2.47;;;14.00;99.90;;;;;;4998282;28;20026;-82
2021/06/21 01:34:53;;;;;;;6.00;2.17;;;14.00;99.90;;;;;;5012106;28;20026;-82
2021/06/21 01:37:21;;;;;;;8.73;2.42;;;14.00;99.90;;;;;;5012158;28;20045;-82
2021/06/21 01:39:49;;;;;;;10.20;2.50;;;14.00;99.90;;;;;;5011878;28;20025;-82
2021/06/21 01:42:18;;;;;;;8.68;2.35;;;14.00;99.90;;;;;;5004279;28;20403;-82
2021/06/21 01:45:07;;;;;;;4.68;2.05;;;14.00;99.90;;;;;;4992223;28;20121;-82
2021/06/21 01:47:34;;;;;;;10.77;2.22;;;14.00;99.90;;;;;;4992244;28;20065;-82
2021/06/21 01:50:00;;;;;;;4.53;1.75;;;14.00;99.90;;;;;;5005307;28;20026;-82
2021/06/21 01:52:36;;;;;;;9.93;2.92;;;13.90;99.90;;;;;;5011552;28;20030;-82
2021/06/21 01:55:04;;;;;;;8.88;2.38;;;13.90;99.90;;;;;;5011872;28;20025;-82
2021/06/21 01:57:35;;;;;;;9.98;2.53;;;13.90;99.90;;;;;;5011733;28;20022;-82
2021/06/21 02:00:07;;;;;;;14.85;2.40;;;13.90;99.90;;;;;;5007124;28;20041;-82
2021/06/21 02:02:35;;;;;;;5.90;2.13;;;13.90;99.90;;;;;;4991842;28;20562;-82
2021/06/21 02:05:02;;;;;;;11.27;2.40;;;13.80;99.90;;;;;;4993331;28;20036;-82
2021/06/21 02:07:29;;;;;;;4.50;2.67;;;13.90;99.90;;;;;;4995619;28;20044;-82
2021/06/21 02:09:56;;;;;;;9.40;1.92;;;13.90;99.90;;;;;;4994790;28;20037;-82
2021/06/21 02:12:25;;;;;;;11.20;2.65;;;13.90;99.90;;;;;;4995517;28;20030;-82
2021/06/21 02:14:51;;;;;;;7.10;2.10;;;13.90;99.90;;;;;;4994416;28;20026;-82
2021/06/21 02:17:22;;;;;;;8.85;2.47;;;13.80;99.90;;;;;;4995675;28;20030;-82
2021/06/21 02:19:51;;;;;;;7.82;2.28;;;13.80;99.90;;;;;;4997104;28;20035;-82
2021/06/21 02:22:21;;;;;;;8.65;2.25;;;13.70;99.90;;;;;;4995335;28;20030;-82
2021/06/21 02:24:47;;;;;;;3.47;1.85;;;13.70;99.90;;;;;;5010569;28;20516;-82
2021/06/21 02:27:13;;;;;;;10.15;2.45;;;13.60;99.90;;;;;;4995506;28;20109;-82
2021/06/21 02:29:39;;;;;;;6.18;1.90;;;13.60;99.90;;;;;;4997661;28;20073;-82
2021/06/21 02:32:05;;;;;;;9.27;2.28;;;13.60;99.90;;;;;;5013379;28;20468;-82
2021/06/21 02:34:31;;;;;;;11.30;2.08;;;13.60;99.90;;;;;;5014479;28;20030;-82
2021/06/21 02:36:57;;;;;;;6.85;3.03;;;13.60;99.90;;;;;;5013735;28;20036;-82
2021/06/21 02:39:22;;;;;;;10.80;2.40;;;13.70;99.90;;;;;;5013603;28;20022;-82
2021/06/21 02:41:48;;;;;;;10.38;2.40;;;13.70;99.90;;;;;;4997318;28;20041;-82
2021/06/21 02:44:14;;;;;;;4.18;2.30;;;13.70;99.90;;;;;;4995570;28;20038;-81
2021/06/21 02:46:39;;;;;;;10.35;2.60;;;13.70;99.90;;;;;;4993739;28;20031;-82
2021/06/21 02:49:05;;;;;;;4.45;1.83;;;13.80;99.90;;;;;;4995043;28;20031;-81
2021/06/21 02:51:37;;;;;;;9.52;2.28;;;13.80;99.90;;;;;;5003516;28;20025;-82
2021/06/21 02:54:14;;;;;;;7.35;2.50;;;13.80;99.90;;;;;;5014418;28;20026;-82
2021/06/21 02:57:09;;;;;;;5.35;2.10;;;13.70;99.90;;;;;;5013358;28;20375;-82
2021/06/21 02:59:37;;;;;;;6.60;2.38;;;13.80;99.90;;;;;;5014548;28;20501;-82
2021/06/21 03:02:03;;;;;;;6.40;1.98;;;13.70;99.90;;;;;;5012506;28;20029;-82
2021/06/21 03:04:31;;;;;;;6.13;2.38;;;13.70;99.90;;;;;;5014470;28;20026;-81
2021/06/21 03:06:57;;;;;;;8.98;2.53;;;13.80;99.90;;;;;;5014329;28;20496;-82
2021/06/21 03:09:25;;;;;;;5.10;2.00;;;13.90;99.90;;;;;;5014431;28;20124;-82
2021/06/21 03:11:52;;;;;;;11.88;2.00;;;13.80;99.90;;;;;;5004294;28;20034;-82
2021/06/21 03:14:25;;;;;;;5.35;2.15;;;13.80;99.90;;;;;;4993515;28;20045;-82
2021/06/21 03:16:53;;;;;;;5.35;2.20;;;13.80;99.90;;;;;;4993057;28;20034;-82
2021/06/21 03:19:18;;;;;;;6.63;2.28;;;13.80;99.90;;;;;;4994615;28;20038;-83
2021/06/21 03:21:44;;;;;;;8.13;2.30;;;13.80;99.90;;;;;;4998139;28;20486;-82
2021/06/21 03:24:14;;;;;;;5.30;2.08;;;13.80;99.90;;;;;;5012840;28;20128;-82
2021/06/21 03:26:41;;;;;;;7.03;1.90;;;13.90;99.90;;;;;;5012534;28;20025;-82
2021/06/21 03:29:14;;;;;;;4.65;1.73;;;13.90;99.90;;;;;;5012668;28;20449;-82
2021/06/21 03:31:42;;;;;;;7.90;1.95;;;13.90;99.90;;;;;;5012509;28;20053;-81
2021/06/21 03:34:08;;;;;;;2.65;1.90;;;13.90;99.90;;;;;;4993026;28;20066;-82
2021/06/21 03:36:33;;;;;;;7.13;2.25;;;13.90;99.90;;;;;;4994232;28;20069;-82
2021/06/21 03:38:59;;;;;;;8.15;2.17;;;13.90;99.90;;;;;;4992912;28;20023;-82
2021/06/21 03:41:24;;;;;;;12.65;2.47;;;13.90;99.90;;;;;;4993881;28;20163;-82
2021/06/21 03:43:50;;;;;;;5.32;1.92;;;13.90;99.90;;;;;;5008098;28;20129;-81
2021/06/21 03:46:15;;;;;;;6.25;2.00;;;13.90;99.90;;;;;;5012287;28;20229;-82
2021/06/21 03:48:41;;;;;;;12.25;3.58;;;13.90;99.90;;;;;;5012353;28;20018;-82
2021/06/21 03:51:06;;;;;;;9.25;2.15;;;14.00;99.90;;;;;;5013489;28;20021;-82
2021/06/21 03:53:32;;;;;;;7.85;2.30;;;13.90;99.90;;;;;;5008601;28;20081;-82
2021/06/21 03:55:58;;;;;;;14.32;2.50;;;14.00;99.90;;;;;;4992637;28;20022;-82
2021/06/21 03:58:24;;;;;;;12.15;2.45;;;13.90;99.90;;;;;;4993773;28;20027;-82
2021/06/21 04:00:49;;;;;;;10.00;2.75;;;14.00;99.90;;;;;;4992566;28;20033;-82
2021/06/21 04:03:16;;;;;;;6.60;1.75;;;14.00;99.90;;;;;;4998451;28;20083;-82
2021/06/21 04:05:42;;;;;;;8.30;2.53;;;13.90;99.90;;;;;;5013168;28;20026;-82
2021/06/21 04:08:09;;;;;;;6.90;2.38;;;13.80;99.90;;;;;;5011712;28;20025;-82
2021/06/21 04:10:37;;;;;;;8.57;2.80;;;13.90;99.90;;;;;;5011837;28;20026;-82
2021/06/21 04:13:03;;;;;;;7.38;2.65;;;13.90;99.90;;;;;;5010638;28;20018;-82
2021/06/21 04:15:30;;;;;;;10.65;2.72;;;13.80;99.90;;;;;;5012965;28;20029;-82
2021/06/21 04:17:58;;;;;;;14.90;3.95;;;13.80;99.90;;;;;;5011755;28;20497;-81
2021/06/21 04:20:25;;;;;;;15.38;3.17;;;13.80;99.90;;;;;;5013057;28;20396;-81
2021/06/21 04:22:50;;;;;;;9.05;2.65;;;13.80;99.90;;;;;;5011323;28;20022;-81
2021/06/21 04:25:18;;;;;;;5.10;2.35;;;13.80;99.90;;;;;;5008098;28;20023;-82
2021/06/21 04:27:44;;;;;;;11.23;2.28;;;13.80;99.90;;;;;;4991323;28;20030;-82
2021/06/21 04:30:12;;;;;;;7.95;2.80;;;13.80;99.90;;;;;;4992004;28;20024;-82
2021/06/21 04:32:38;;;;;;;13.32;3.00;;;13.80;99.90;;;;;;4991695;28;20028;-82
2021/06/21 04:35:07;;;;;;;13.43;2.80;;;13.90;99.90;;;;;;4992173;28;20120;-82
2021/06/21 04:37:33;;;;;;;9.82;3.15;;;13.90;99.90;;;;;;4993109;28;20038;-82
2021/06/21 04:39:58;;;;;;;7.03;3.25;;;13.90;99.90;;;;;;4991745;28;20118;-82
2021/06/21 04:42:25;;;;;;;9.80;2.97;;;13.80;99.90;;;;;;4993091;28;20030;-82
2021/06/21 04:44:50;;;;;;;6.90;3.05;;;13.80;99.90;;;;;;4991720;28;20053;-83
2021/06/21 04:47:16;;;;;;;11.40;2.67;;;13.80;99.90;;;;;;4992891;28;20061;-82
2021/06/21 04:49:41;;;;;;;14.55;3.00;;;13.80;99.90;;;;;;4991615;28;20096;-82
2021/06/21 04:52:10;;;;;;;6.88;2.28;;;13.90;99.90;;;;;;4998294;28;20080;-82
2021/06/21 04:54:37;;;;;;;13.25;3.10;;;13.90;99.90;;;;;;5011265;28;20393;-82
2021/06/21 04:57:03;;;;;;;8.35;2.47;;;14.00;99.90;;;;;;5011274;28;20025;-82
2021/06/21 04:59:28;;;;;;;10.35;2.33;;;14.00;99.90;;;;;;5011059;28;20124;-82
2021/06/21 05:01:54;;;;;;;5.95;2.80;;;14.00;99.90;;;;;;5009088;28;20064;-82
2021/06/21 05:04:19;;;;;;;7.55;2.20;;;14.10;99.90;;;;;;4993296;28;20487;-83
2021/06/21 05:06:45;;;;;;;17.90;2.78;;;14.00;99.90;;;;;;4991451;28;20023;-82
2021/06/21 05:09:11;;;;;;;12.38;3.03;;;14.20;99.90;;;;;;4992653;28;20434;-82
2021/06/21 05:11:37;;;;;;;12.50;2.55;;;14.20;99.90;;;;;;4991107;28;20046;-82
2021/06/21 05:14:03;;;;;;;12.15;2.60;;;14.20;99.90;;;;;;5008382;28;20026;-82
2021/06/21 05:16:29;;;;;;;9.02;2.25;;;14.20;99.90;;;;;;5013177;28;20022;-78
2021/06/21 05:18:54;;;;;;;9.40;2.28;;;14.30;99.90;;;;;;5012260;28;20030;-82
2021/06/21 05:21:20;;;;;;;8.38;2.40;;;14.20;99.90;;;;;;4997544;28;20041;-81
2021/06/21 05:23:46;;;;;;;8.50;2.40;;;14.20;99.90;;;;;;5004900;28;20046;-80
2021/06/21 05:26:13;;;;;;;8.25;2.90;;;14.20;99.90;;;;;;4998383;28;20056;-80
2021/06/21 05:28:38;;;;;;;9.55;2.67;;;14.10;99.90;;;;;;4998557;28;20108;-83
2021/06/21 05:31:04;;;;;;;8.27;2.80;;;14.20;99.90;;;;;;5006799;28;20597;-83
2021/06/21 05:33:30;;;;;;;11.95;2.78;;;14.20;99.90;;;;;;5006369;28;20026;-83
2021/06/21 05:35:55;;;;;;;12.30;3.33;;;14.30;99.90;;;;;;5007645;28;20022;-80
2021/06/21 05:38:21;;;;;;;6.22;2.58;;;14.20;99.90;;;;;;5004745;28;20030;-81
2021/06/21 05:40:47;;;;;;;3.90;2.13;;;14.30;99.90;;;;;;5011293;28;20026;-83
2021/06/21 05:43:12;;;;;;;11.88;2.80;;;14.30;99.90;;;;;;5010251;28;20030;-83
2021/06/21 05:45:38;;;;;;;13.02;2.40;;;14.30;99.90;;;;;;5010387;28;20029;-81
2021/06/21 05:48:05;;;;;;;12.27;2.17;;;14.40;99.90;;;;;;5011816;28;20029;-82
2021/06/21 05:50:30;;;;;;;8.90;2.20;;;14.30;99.90;;;;;;5014573;28;20022;-82
2021/06/21 05:52:56;;;;;;;9.15;2.75;;;14.30;99.90;;;;;;5009188;28;20049;-82
2021/06/21 05:55:23;;;;;;;10.63;2.47;;;14.40;99.90;;;;;;4996115;28;20029;-82
2021/06/21 05:57:53;;;;;;;13.25;3.45;;;14.40;99.90;;;;;;5008494;28;20038;-82
2021/06/21 06:00:19;;;;;;;8.35;2.85;;;14.40;99.90;;;;;;4996054;28;20045;-82
2021/06/21 06:02:45;;;;;;;25.48;4.28;;;14.40;99.90;;;;;;5010366;28;20082;-82
2021/06/21 06:05:11;;;;;;;12.52;2.90;;;14.40;99.90;;;;;;5010602;28;20046;-82
2021/06/21 06:07:37;;;;;;;11.70;2.60;;;14.40;99.90;;;;;;4995684;28;20393;-83
2021/06/21 06:10:03;;;;;;;12.68;2.80;;;14.60;99.90;;;;;;4994498;28;20027;-83
2021/06/21 06:12:28;;;;;;;10.43;2.70;;;14.50;99.90;;;;;;4994288;28;20023;-83
2021/06/21 06:14:54;;;;;;;10.65;2.67;;;14.50;99.90;;;;;;4996304;28;20037;-83
2021/06/21 06:17:19;;;;;;;9.35;3.10;;;14.50;99.90;;;;;;5005675;28;20030;-81
2021/06/21 06:19:45;;;;;;;9.00;2.35;;;14.60;99.90;;;;;;5010412;28;20113;-81
2021/06/21 06:22:13;;;;;;;14.57;2.78;;;14.60;99.90;;;;;;4990965;28;20038;-85
2021/06/21 06:24:39;;;;;;;6.88;2.30;;;14.60;99.90;;;;;;5006298;28;20033;-79
2021/06/21 06:27:05;;;;;;;7.07;2.55;;;14.70;99.90;;;;;;5009802;28;20108;-79
2021/06/21 06:29:33;;;;;;;13.20;2.90;;;14.70;99.90;;;;;;5010144;28;20037;-79
2021/06/21 06:31:59;;;;;;;9.38;2.25;;;14.70;99.90;;;;;;5009733;28;20041;-80
2021/06/21 06:34:24;;;;;;;7.43;3.25;;;14.80;99.90;;;;;;5009548;28;20050;-80
2021/06/21 06:36:51;;;;;;;7.70;2.60;;;14.60;99.90;;;;;;5013870;28;20025;-80
2021/06/21 06:39:17;;;;;;;8.95;2.22;;;14.60;99.90;;;;;;5009312;28;20415;-80
2021/06/21 06:41:42;;;;;;;9.48;3.13;;;14.70;99.90;;;;;;5009647;28;20022;-80
2021/06/21 06:44:08;;;;;;;8.55;1.92;;;14.70;99.90;;;;;;5006279;28;20026;-79
2021/06/21 06:46:34;;;;;;;10.52;2.22;;;14.60;99.90;;;;;;5011970;28;20081;-79
2021/06/21 06:49:00;;;;;;;7.07;2.50;;;14.60;99.90;;;;;;5008659;28;20022;-79
2021/06/21 06:51:28;;;;;;;6.70;2.60;;;14.60;99.90;;;;;;5007442;28;20029;-79
2021/06/21 06:54:06;;;;;;;10.55;3.10;;;14.60;99.90;;;;;;5009918;28;20030;-79
2021/06/21 06:59:16;;;;;;;4.47;1.50;;;14.50;99.90;;;;;;4995058;28;20035;-80
2021/06/21 07:01:43;;;;;;;5.18;2.40;;;14.60;99.90;;;;;;4994520;28;20035;-80
2021/06/21 07:04:09;;;;;;;7.70;2.00;;;14.70;99.90;;;;;;4994967;28;20479;-80
2021/06/21 07:06:35;;;;;;;8.43;2.05;;;14.60;99.90;;;;;;4994961;28;20034;-79
2021/06/21 07:09:00;;;;;;;6.18;1.90;;;14.70;99.90;;;;;;4994215;28;20018;-78
2021/06/21 07:11:26;;;;;;;4.70;2.05;;;14.70;99.90;;;;;;4994490;28;20030;-79
2021/06/21 07:13:52;;;;;;;13.45;3.03;;;14.70;99.90;;;;;;4994454;28;20105;-79
2021/06/21 07:16:17;;;;;;;6.93;2.25;;;14.70;99.90;;;;;;4993326;28;20030;-79
2021/06/21 07:18:43;;;;;;;7.18;2.08;;;14.70;99.90;;;;;;4994294;28;20030;-78
2021/06/21 07:21:09;;;;;;;7.72;2.35;;;14.70;99.90;;;;;;4993086;28;20022;-79
2021/06/21 07:23:35;;;;;;;3.58;2.30;;;14.60;99.90;;;;;;4993000;28;20450;-78
2021/06/21 07:26:00;;;;;;;9.85;2.47;;;14.60;99.90;;;;;;4994183;28;20030;-79
2021/06/21 07:28:26;;;;;;;3.45;1.98;;;14.50;99.90;;;;;;4994372;28;20026;-79
2021/06/21 07:30:52;;;;;;;6.32;1.88;;;14.50;99.90;;;;;;4992834;28;20026;-79
2021/06/21 07:33:17;;;;;;;8.90;2.38;;;14.40;99.90;;;;;;4992617;28;20097;-78
2021/06/21 07:35:43;;;;;;;7.80;2.35;;;14.50;99.90;;;;;;4992869;28;20022;-79
2021/06/21 07:38:10;;;;;;;10.43;2.70;;;14.30;99.90;;;;;;4994195;28;20541;-79
2021/06/21 07:40:38;;;;;;;14.68;2.88;;;14.50;99.90;;;;;;4994064;28;20076;-79
2021/06/21 07:43:03;;;;;;;12.40;3.20;;;14.40;99.90;;;;;;4993754;28;20026;-79
2021/06/21 07:45:29;;;;;;;7.45;2.58;;;14.40;99.90;;;;;;4993988;28;20073;-79
2021/06/21 07:47:58;;;;;;;13.82;3.28;;;14.50;99.90;;;;;;4993551;28;20026;-79
2021/06/21 07:50:25;;;;;;;10.32;3.15;;;14.60;99.90;;;;;;4993824;28;20026;-79
2021/06/21 07:52:50;;;;;;;13.13;3.47;;;14.70;99.90;;;;;;4991875;28;20109;-79
2021/06/21 07:55:16;;;;;;;7.25;2.90;;;14.80;99.90;;;;;;4992655;28;20077;-79
2021/06/21 07:57:41;;;;;;;9.30;2.75;;;14.90;99.90;;;;;;4993863;28;20038;-79
2021/06/21 08:00:08;;;;;;;10.82;3.58;;;15.10;99.90;;;;;;4993658;28;20049;-79
2021/06/21 08:02:33;;;;;;;7.85;2.80;;;15.00;99.90;;;;;;4992406;28;20029;-79
2021/06/21 08:04:59;;;;;;;15.10;3.15;;;15.20;99.90;;;;;;4993695;28;20035;-80
2021/06/21 08:07:24;;;;;;;12.80;2.72;;;15.30;99.90;;;;;;4993636;28;20081;-79
2021/06/21 08:09:50;;;;;;;10.82;3.65;;;15.30;99.90;;;;;;4993796;28;20029;-79
2021/06/21 08:12:16;;;;;;;7.53;3.13;;;15.40;99.90;;;;;;4993137;28;20050;-79
2021/06/21 08:14:43;;;;;;;9.02;3.20;;;15.60;99.90;;;;;;4993478;28;20085;-79
2021/06/21 08:17:09;;;;;;;9.80;3.03;;;15.50;99.90;;;;;;4993538;28;20093;-79
2021/06/21 08:19:35;;;;;;;13.30;3.10;;;15.40;99.90;;;;;;4993235;28;20031;-82
2021/06/21 08:22:00;;;;;;;6.38;3.03;;;15.20;99.90;;;;;;4993050;28;20109;-80
2021/06/21 08:24:26;;;;;;;11.02;3.00;;;15.20;99.90;;;;;;4993379;28;20038;-81
2021/06/21 08:26:53;;;;;;;9.65;3.08;;;15.10;99.90;;;;;;4993087;28;20077;-81
2021/06/21 08:29:19;;;;;;;12.50;3.58;;;15.10;99.90;;;;;;4993276;28;20110;-81
2021/06/21 08:31:44;;;;;;;8.98;3.22;;;15.10;99.90;;;;;;4991594;28;20106;-80
2021/06/21 08:34:10;;;;;;;10.95;3.63;;;15.20;99.90;;;;;;4991779;28;20018;-80
2021/06/21 08:36:35;;;;;;;12.30;3.72;;;15.20;99.90;;;;;;4993043;28;20419;-81
2021/06/21 08:39:01;;;;;;;13.40;3.95;;;15.30;99.90;;;;;;4993108;28;20062;-81
2021/06/21 08:41:27;;;;;;;13.88;3.22;;;15.10;99.90;;;;;;4992562;28;20046;-81
2021/06/21 08:43:52;;;;;;;10.05;2.80;;;15.10;99.90;;;;;;4991695;28;20031;-81
2021/06/21 08:46:18;;;;;;;9.57;2.53;;;15.00;99.90;;;;;;4992927;28;20049;-81
2021/06/21 08:48:47;;;;;;;10.93;3.15;;;15.00;99.90;;;;;;4992817;28;20121;-81
2021/06/21 08:51:14;;;;;;;13.32;2.90;;;14.90;99.90;;;;;;4992744;28;20022;-81
2021/06/21 08:53:40;;;;;;;10.25;2.60;;;14.80;99.90;;;;;;4992574;28;20117;-81
2021/06/21 08:56:07;;;;;;;16.80;3.95;;;14.70;99.90;;;;;;4992632;28;20108;-81
2021/06/21 08:58:33;;;;;;;12.38;3.00;;;14.70;99.90;;;;;;4992585;28;20077;-80
2021/06/21 09:00:59;;;;;;;13.43;2.80;;;14.60;99.90;;;;;;4992650;28;20042;-80
2021/06/21 09:03:25;;;;;;;11.35;2.50;;;14.70;99.90;;;;;;4991069;28;20088;-79
2021/06/21 09:05:50;;;;;;;11.38;2.72;;;14.60;99.90;;;;;;4991410;28;20029;-81
2021/06/21 09:08:16;;;;;;;9.43;2.42;;;14.60;99.90;;;;;;4992710;28;20018;-81
2021/06/21 09:10:42;;;;;;;7.50;2.70;;;14.50;99.90;;;;;;4991315;28;20153;-80
2021/06/21 09:13:11;;;;;;;11.52;3.17;;;14.60;99.90;;;;;;4992031;28;20046;-81
2021/06/21 09:15:39;;;;;;;11.00;3.00;;;14.50;99.90;;;;;;4992347;28;20101;-80
2021/06/21 09:18:24;;;;;;;11.50;2.22;;;14.50;99.90;;;;;;4992388;28;20026;-80
2021/06/21 09:21:10;;;;;;;9.73;2.38;;;14.50;99.90;;;;;;4992463;28;20029;-79
2021/06/21 09:23:36;;;;;;;17.58;3.13;;;14.20;99.90;;;;;;4990868;28;20026;-81
2021/06/21 09:26:22;;;;;;;7.68;2.70;;;14.20;99.90;;;;;;4992243;28;20031;-80
2021/06/21 09:28:48;;;;;;;6.28;2.40;;;14.20;99.90;;;;;;4992431;28;20014;-79
2021/06/21 09:31:14;;;;;;;16.92;3.60;;;14.20;99.90;;;;;;4992249;28;20099;-80
2021/06/21 09:33:40;;;;;;;9.43;3.10;;;14.10;99.90;;;;;;4992247;28;20022;-79
2021/06/21 09:36:06;;;;;;;10.65;3.35;;;14.10;99.90;;;;;;4990774;28;20077;-79
2021/06/21 09:38:32;;;;;;;7.93;3.05;;;14.20;99.90;;;;;;4991127;28;20033;-79
2021/06/21 09:40:59;;;;;;;11.15;2.72;;;14.10;99.90;;;;;;4992264;28;20026;-80
2021/06/21 09:43:28;;;;;;;17.92;2.80;;;14.20;99.90;;;;;;4990800;28;20057;-79
2021/06/21 09:46:08;;;;;;;6.35;2.40;;;14.30;99.90;;;;;;4990990;28;20030;-80
2021/06/21 09:48:44;;;;;;;5.65;2.58;;;14.20;99.90;;;;;;4992051;28;20081;-81
2021/06/21 09:51:38;;;;;;;8.98;3.03;;;14.10;99.90;;;;;;4992176;28;20022;-80
2021/06/21 09:54:10;;;;;;;8.50;3.15;;;14.10;99.90;;;;;;5023561;28;20490;-80
2021/06/21 09:56:47;;;;;;;7.55;2.75;;;14.10;99.90;;;;;;5007350;28;20038;-81
2021/06/21 09:59:26;;;;;;;17.65;3.80;;;14.10;99.90;;;;;;4992442;28;20102;-80
2021/06/21 10:02:12;;;;;;;10.05;2.75;;;13.90;99.90;;;;;;4991773;28;20105;-81
2021/06/21 10:04:40;;;;;;;8.43;3.20;;;13.90;99.90;;;;;;4992503;28;20027;-80
2021/06/21 10:07:24;;;;;;;9.32;2.95;;;13.90;99.90;;;;;;4991970;28;20040;-80
2021/06/21 10:09:53;;;;;;;11.82;3.42;;;13.80;99.90;;;;;;4991807;28;20061;-80
2021/06/21 10:12:20;;;;;;;8.50;3.47;;;13.80;99.90;;;;;;4991714;28;20026;-79
2021/06/21 10:14:45;;;;;;;8.48;2.45;;;13.80;99.90;;;;;;4990869;28;20022;-79
2021/06/21 10:17:11;;;;;;;7.70;2.60;;;13.70;99.90;;;;;;4991967;28;20450;-78
2021/06/21 10:19:37;;;;;;;9.77;3.17;;;13.80;99.90;;;;;;4991994;28;20323;-79
2021/06/21 10:22:02;;;;;;;5.05;2.38;;;13.80;99.90;;;;;;4991706;28;20031;-79
2021/06/21 10:24:31;;;;;;;11.48;3.25;;;13.80;99.90;;;;;;4991949;28;20577;-79
2021/06/21 10:26:58;;;;;;;9.30;3.22;;;13.90;99.90;;;;;;4994157;28;20026;-80
2021/06/21 10:29:25;;;;;;;5.78;2.92;;;14.10;99.90;;;;;;4995363;28;20386;-79
2021/06/21 10:31:51;;;;;;;9.75;3.35;;;14.20;99.90;;;;;;4993862;28;20564;-79
2021/06/21 10:34:19;;;;;;;10.35;2.83;;;14.40;99.90;;;;;;4995406;28;20065;-79
2021/06/21 10:36:52;;;;;;;11.20;3.50;;;14.40;99.90;;;;;;4994070;28;20038;-79
2021/06/21 10:39:34;;;;;;;7.00;2.55;;;14.60;99.90;;;;;;4993909;28;20026;-78
2021/06/21 10:42:06;;;;;;;10.02;3.30;;;14.50;99.90;;;;;;4994933;28;20094;-78
2021/06/21 10:44:45;;;;;;;11.55;3.03;;;14.50;99.90;;;;;;4993919;28;20030;-79
2021/06/21 10:47:29;;;;;;;14.00;3.67;;;14.50;99.90;;;;;;4995204;28;20091;-78
2021/06/21 10:50:02;;;;;;;9.68;3.22;;;14.60;99.90;;;;;;4994949;28;20546;-79
2021/06/21 10:52:38;;;;;;;8.88;3.70;;;14.50;99.90;;;;;;4994923;28;20038;-79
2021/06/21 10:55:27;;;;;;;8.32;3.88;;;14.40;99.90;;;;;;4995124;28;20022;-79
2021/06/21 10:57:54;;;;;;;10.25;3.90;;;14.50;99.90;;;;;;5023033;28;20550;-79
2021/06/21 11:00:32;;;;;;;8.65;3.55;;;14.50;99.90;;;;;;4993548;28;20065;-80
2021/06/21 11:02:58;;;;;;;15.98;3.50;;;14.40;99.90;;;;;;4993330;28;20398;-80
2021/06/21 11:05:42;;;;;;;6.78;2.80;;;14.30;99.90;;;;;;4993596;28;20019;-82
2021/06/21 11:08:13;;;;;;;9.02;3.17;;;14.40;99.90;;;;;;4994598;28;20081;-78
2021/06/21 11:10:39;;;;;;;10.30;3.63;;;14.50;99.90;;;;;;5009282;28;20061;-80
2021/06/21 11:13:35;;;;;;;10.93;3.40;;;14.40;99.90;;;;;;4994333;28;20069;-79
2021/06/21 11:16:19;;;;;;;10.57;3.63;;;14.40;99.90;;;;;;4994580;28;20030;-79
2021/06/21 11:18:47;;;;;;;10.30;3.47;;;14.30;99.90;;;;;;4994486;28;20023;-79
2021/06/21 11:21:20;;;;;;;10.30;3.47;;;14.30;99.90;;;;;;4993149;28;20565;-79
2021/06/21 11:23:51;;;;;;;8.15;3.83;;;14.40;99.90;;;;;;4994421;28;20026;-80
2021/06/21 11:26:17;;;;;;;6.55;2.88;;;14.50;99.90;;;;;;4993233;28;20034;-80
2021/06/21 11:28:46;;;;;;;9.73;3.50;;;14.50;99.90;;;;;;4993167;28;20030;-79
2021/06/21 11:31:28;;;;;;;14.60;4.15;;;14.50;99.90;;;;;;4992942;28;20026;-79
2021/06/21 11:33:59;;;;;;;10.35;3.35;;;14.50;99.90;;;;;;4994233;28;20033;-80
2021/06/21 11:36:44;;;;;;;10.75;3.50;;;14.60;99.90;;;;;;4994159;28;20395;-79
2021/06/21 11:39:33;;;;;;;10.73;3.55;;;14.80;99.90;;;;;;4992871;28;20027;-79
2021/06/21 11:42:07;;;;;;;7.53;3.50;;;14.80;99.90;;;;;;4993806;28;20437;-79
2021/06/21 11:44:39;;;;;;;;;;;14.70;99.90;;;;;;4994560;28;20030;-79
2021/06/21 11:47:29;;;;;;;7.03;3.58;;;14.60;99.90;;;;;;4993996;28;19963;-79
2021/06/21 11:50:16;;;;;;;9.20;3.28;;;14.80;99.90;;;;;;4993936;28;20018;-79
2021/06/21 11:52:42;;;;;;;12.18;3.72;;;14.80;99.90;;;;;;4993578;28;20061;-79
2021/06/21 11:55:16;;;;;;;14.52;3.17;;;14.60;99.90;;;;;;4993852;28;20540;-79
2021/06/21 11:57:44;;;;;;;11.70;3.20;;;14.80;99.90;;;;;;4993909;28;20044;-79
2021/06/21 12:00:10;;;;;;;11.75;4.47;;;14.70;99.90;;;;;;4993643;28;20030;-78
2021/06/21 12:02:36;;;;;;;4.78;2.72;;;14.80;99.90;;;;;;4993303;28;20125;-79
2021/06/21 12:05:15;;;;;;;9.45;3.80;;;14.90;99.90;;;;;;4993626;28;20106;-79
2021/06/21 12:07:43;;;;;;;10.07;4.10;;;15.10;99.90;;;;;;4993652;28;20029;-79
2021/06/21 12:10:13;;;;;;;11.70;3.38;;;15.00;99.90;;;;;;4993412;28;20038;-79
2021/06/21 12:12:41;;;;;;;14.43;3.60;;;14.90;99.90;;;;;;4991876;28;20368;-79
2021/06/21 12:15:12;;;;;;;11.98;4.10;;;15.00;99.90;;;;;;4992173;28;20434;-79
2021/06/21 12:17:38;;;;;;;14.18;3.63;;;15.00;99.90;;;;;;4993416;28;20030;-79
2021/06/21 12:20:18;;;;;;;15.68;4.15;;;15.00;99.90;;;;;;4993457;28;20084;-79
2021/06/21 12:23:09;;;;;;;13.10;4.80;;;14.80;99.90;;;;;;4992851;28;20073;-79
2021/06/21 12:25:36;;;;;;;11.45;4.50;;;14.90;99.90;;;;;;4993396;28;20030;-79
2021/06/21 12:28:15;;;;;;;13.23;5.53;;;15.10;99.90;;;;;;4993153;28;20474;-79
2021/06/21 12:30:46;;;;;;;6.80;3.50;;;15.10;99.90;;;;;;5008428;28;20390;-79
2021/06/21 12:33:30;;;;;;;11.60;4.65;;;15.10;99.90;;;;;;4992590;28;20022;-79
2021/06/21 12:36:18;;;;;;;8.43;3.75;;;15.10;99.90;;;;;;4993227;28;20038;-79
2021/06/21 12:38:52;;;;;;;9.85;3.78;;;15.00;99.90;;;;;;4993081;28;20037;-79
2021/06/21 12:41:36;;;;;;;11.90;3.72;;;15.00;99.90;;;;;;4992895;28;20018;-78
2021/06/21 12:44:06;;;;;;;11.27;3.53;;;14.90;99.90;;;;;;4991735;28;20030;-79
2021/06/21 12:46:36;;;;;;;16.52;3.78;;;14.70;99.90;;;;;;5007976;28;20030;-78
2021/06/21 12:49:08;;;;;;;13.02;3.83;;;14.50;99.90;;;;;;4992415;28;20050;-79
2021/06/21 12:51:34;;;;;;;11.85;4.05;;;14.50;99.90;;;;;;4992685;28;20475;-80
2021/06/21 12:54:00;;;;;;;13.68;4.60;;;14.60;99.90;;;;;;4992612;28;20038;-80
2021/06/21 12:56:32;;;;;;;11.60;3.83;;;14.60;99.90;;;;;;4992753;28;20026;-80